Česky Dansk Deutsch English Español Suomi Français Magyar Italiano Nederlands norsk Polski Português svenska Türkçe

 

Het Weer

Kramfors Flygplats (Zweden)

07:50, 1 augustus 2016 (GMT)

NWNNE
WE
SWSSE
Home            
Kramfors Flygplats Sundsvall-Harnosand Flygplats Ornskoldsvik Airport Umea Flygplats Ostersund / Froson Lycksele Soderhamn Vaasa Soderhamn Gunnarn Skelleftea Airport Ilmajoki Seinajoki-Ilmajok Kauhava Pori Gavle / Sandviken Air Force Base Kruunupyy Siljan / Mora Borlange Roros Lufthavn Ahtari Vidsel Namsos Lufthavn

Om een weerknop op uw website of weblog te plaatsen, copieer onderstaande code en plak die in uw pagina. In het eerste vakje staat HTML-code, in het tweede vakje UBB-code.


Add to Google

Details

Wind speed:1 bf, 3 kn, 1.5 m/s, 3.5 miles/h, 5.6 km/h
Wind direction:E, 090° - S, 170°
Visibility:Greater than 10000 m, 10 km, 32800 ft, 6.2 miles
Temperature:17°C, 63°F
Dew-point:11°C, 52°F
Atmospheric pressure:1004 hPa, 753.1 mmHg, 29.65 inHg, 0.991 atm
Relative humidity:67.7 %
METAR:ESNK 010750Z AUTO 13003KT 090V170 9999 NCD 17/11 Q1004

Snelkoppelingen

Actuele weersinformatie van de hele wereld. Voeg locaties toe met het plus (+) symbool. Deze snelkoppelingen kunnen worden toegevoegd aan Google.

Lid van de Technetium groep

website free tracking
StatCounter NetStat W3C Validator

27-10-2020 02:04:09
astro.technetium.be money.technetium.be phote.technetium.be tafeltennistafel.technetium.be www.ligfiets.net